Hveragerdi, Iceland
Current Conditions -  °F | °C
As of 4:00 PM on Saturday 25 Oct 2014 (Local Time) from BIRK Reporting Station
Broken Clouds Broken Clouds  
Wind Chill: 35°   Ceiling: 5000
Heat Index: 41°   Visibility: 6mi
Dew Point: 30°   Wind: 9mph
Humidity: 65%   Direction: 60°ENE
Pressure: 28.7"   Gusts: NA
Location:  64°N, 21.2°W
Report Text: BIRK 251600Z 06008KT 9999 SCT043 BKN050 05/M01 Q0972
Loading
Personal Weather Stations






























Interactive Weather Map
Tropical Storm Tracking
New forecast layout! Learn more

10-Day Weather Forecast

Advertisements
Track Severe Weather on mobile